Time;durP1;ratioP1;P1;durP2;ratioP2;P2;SDS_P1;SDS_P2;PMS_P1;PMS_P2;Temp;Humidity;BMP_temperature;BMP_pressure;BME280_temperature;BME280_humidity;BME280_pressure;Samples;Min_cycle;Max_cycle;Signal;HPM_P1;HPM_P2
2023/08/15 00:02:21;;;;;;;10.68;9.68;;;;;;;22.16;52.66;93129.84;5071216;28;20247;-75
2023/08/15 00:04:47;;;;;;;11.25;10.45;;;;;;;22.26;52.19;93142.66;5071454;28;20191;-75
2023/08/15 00:07:12;;;;;;;12.45;11.02;;;;;;;22.15;52.24;93118.44;5071268;28;20292;-75
2023/08/15 00:09:37;;;;;;;10.95;10.25;;;;;;;22.32;51.90;93143.97;5070960;28;20179;-74
2023/08/15 00:12:03;;;;;;;13.15;10.50;;;;;;;22.48;51.71;93136.03;5069654;28;20265;-75
2023/08/15 00:14:28;;;;;;;11.02;10.13;;;;;;;22.43;52.17;93129.06;5071521;28;20192;-74
2023/08/15 00:16:54;;;;;;;11.60;10.70;;;;;;;22.20;52.53;93104.91;5070361;28;20238;-75
2023/08/15 00:19:19;;;;;;;10.27;9.27;;;;;;;22.24;53.20;93128.94;5071775;28;20186;-75
2023/08/15 00:21:44;;;;;;;10.68;9.88;;;;;;;22.11;52.92;93119.44;5074155;28;20276;-74
2023/08/15 00:24:10;;;;;;;12.43;9.80;;;;;;;22.10;53.02;93123.22;5091040;28;20182;-75
2023/08/15 00:26:35;;;;;;;9.88;9.18;;;;;;;22.05;53.51;93123.44;5090827;28;20194;-75
2023/08/15 00:29:01;;;;;;;11.35;10.35;;;;;;;21.97;54.04;93119.81;5088801;28;20192;-74
2023/08/15 00:31:26;;;;;;;11.75;10.30;;;;;;;21.88;54.71;93113.81;5089733;28;20189;-74
2023/08/15 00:33:51;;;;;;;11.63;10.00;;;;;;;21.83;53.98;93098.13;5089567;28;20197;-75
2023/08/15 00:36:17;;;;;;;11.18;10.07;;;;;;;21.90;54.70;93108.16;5090769;28;20194;-75
2023/08/15 00:38:43;;;;;;;10.32;9.57;;;;;;;21.76;55.31;93108.53;5090831;28;20223;-75
2023/08/15 00:41:09;;;;;;;10.82;10.02;;;;;;;21.72;55.48;93101.53;5090831;28;20280;-75
2023/08/15 00:43:35;;;;;;;11.57;10.68;;;;;;;21.61;56.11;93089.81;5071774;28;20240;-74
2023/08/15 00:46:03;;;;;;;11.25;10.32;;;;;;;21.58;56.01;93095.78;5070636;28;20226;-75
2023/08/15 00:48:30;;;;;;;10.63;9.75;;;;;;;21.56;56.70;93092.69;5069412;28;20297;-75
2023/08/15 00:50:57;;;;;;;10.60;9.73;;;;;;;21.53;56.72;93094.13;5070986;28;20285;-74
2023/08/15 00:53:23;;;;;;;10.75;10.00;;;;;;;21.46;57.32;93095.81;5069397;28;20758;-75
2023/08/15 00:55:50;;;;;;;10.98;10.18;;;;;;;21.54;56.50;93100.25;5070627;28;20184;-75
2023/08/15 00:58:16;;;;;;;10.85;9.95;;;;;;;21.42;56.94;93090.38;5070397;28;20229;-74
2023/08/15 01:00:42;;;;;;;11.05;10.00;;;;;;;21.40;57.57;93083.88;5070326;28;20184;-75
2023/08/15 01:03:09;;;;;;;11.02;10.18;;;;;;;21.52;56.31;93073.22;5064209;28;20217;-75
2023/08/15 01:05:36;;;;;;;10.90;10.00;;;;;;;21.54;56.36;93076.31;5058138;28;20191;-74
2023/08/15 01:08:01;;;;;;;10.68;9.90;;;;;;;21.55;55.79;93078.66;5083872;28;20232;-75
2023/08/15 01:10:27;;;;;;;10.70;9.90;;;;;;;21.21;56.35;93025.22;5089958;28;20183;-75
2023/08/15 01:13:12;;;;;;;11.48;10.63;;;;;;;21.48;57.56;93064.38;5089831;28;20249;-75
2023/08/15 01:15:41;;;;;;;11.40;10.45;;;;;;;21.39;57.90;93050.41;5079301;28;20182;-74
2023/08/15 01:18:15;;;;;;;11.20;10.30;;;;;;;21.32;58.02;93056.31;5084199;28;20228;-75
2023/08/15 01:20:41;;;;;;;10.80;9.88;;;;;;;21.32;58.15;93060.84;5084005;28;20189;-75
2023/08/15 01:23:08;;;;;;;11.73;9.68;;;;;;;21.52;58.02;93070.56;5075415;28;20244;-75
2023/08/15 01:25:41;;;;;;;11.20;10.30;;;;;;;21.50;59.35;93062.13;5065764;28;20187;-75
2023/08/15 01:28:15;;;;;;;11.02;10.23;;;;;;;21.18;60.80;93076.34;5068610;28;20218;-75
2023/08/15 01:30:48;;;;;;;11.07;10.20;;;;;;;21.39;61.03;93063.69;5069829;28;20192;-75
2023/08/15 01:33:34;;;;;;;10.52;9.48;;;;;;;21.31;62.24;93064.63;5063081;28;20221;-75
2023/08/15 01:36:05;;;;;;;10.85;9.85;;;;;;;21.21;61.56;93060.53;5070081;28;20183;-75
2023/08/15 01:38:51;;;;;;;10.75;10.05;;;;;;;21.18;61.52;93065.72;5055565;28;20223;-75
2023/08/15 01:41:20;;;;;;;10.52;9.82;;;;;;;21.29;61.56;93056.19;5069771;28;20268;-75
2023/08/15 01:43:47;;;;;;;10.38;9.40;;;;;;;20.94;62.07;93045.19;5088912;28;20209;-75
2023/08/15 01:46:13;;;;;;;10.27;9.60;;;;;;;21.02;62.39;93043.56;5089674;28;20184;-76
2023/08/15 01:48:40;;;;;;;11.20;10.05;;;;;;;21.11;60.86;93054.84;5088750;28;20229;-75
2023/08/15 01:51:06;;;;;;;11.25;10.30;;;;;;;21.04;61.90;93052.00;5090166;28;20167;-75
2023/08/15 01:53:31;;;;;;;12.10;9.95;;;;;;;20.93;61.50;93048.19;5076846;28;20244;-75
2023/08/15 01:55:56;;;;;;;10.20;9.50;;;;;;;20.87;62.35;93046.88;5089753;28;20187;-74
2023/08/15 01:58:22;;;;;;;10.52;9.63;;;;;;;20.88;61.48;93035.13;5088306;28;20220;-74
2023/08/15 02:00:48;;;;;;;12.60;9.68;;;;;;;20.95;61.14;93041.44;5089596;28;20194;-74
2023/08/15 02:03:13;;;;;;;11.77;10.70;;;;;;;20.78;61.40;93041.63;5090046;28;20222;-75
2023/08/15 02:05:39;;;;;;;11.52;10.50;;;;;;;20.73;61.90;93021.41;5089642;28;20197;-74
2023/08/15 02:08:04;;;;;;;11.10;10.30;;;;;;;20.94;61.82;93045.19;5074882;28;20224;-74
2023/08/15 02:10:30;;;;;;;10.68;9.95;;;;;;;20.94;61.81;93044.41;5069345;28;20181;-75
2023/08/15 02:12:55;;;;;;;11.25;10.35;;;;;;;21.05;61.94;93040.25;5068872;28;20252;-75
2023/08/15 02:15:21;;;;;;;10.90;10.10;;;;;;;21.09;62.49;93043.81;5066994;28;20220;-74
2023/08/15 02:17:46;;;;;;;10.80;9.90;;;;;;;20.58;63.41;93003.47;5067774;28;20235;-75
2023/08/15 02:20:11;;;;;;;11.23;10.23;;;;;;;20.85;63.79;93020.66;5069560;28;20178;-74
2023/08/15 02:22:37;;;;;;;11.00;10.10;;;;;;;21.05;63.48;93040.25;5069446;28;20282;-74
2023/08/15 02:25:02;;;;;;;11.07;10.18;;;;;;;20.90;62.49;93043.53;5068787;28;20255;-75
2023/08/15 02:27:28;;;;;;;11.63;10.48;;;;;;;20.92;62.96;93038.69;5069374;28;20222;-74
2023/08/15 02:29:53;;;;;;;11.02;10.07;;;;;;;20.96;63.53;93048.34;5064866;28;20200;-74
2023/08/15 02:32:19;;;;;;;11.20;10.40;;;;;;;20.94;63.26;93039.91;5058284;28;20229;-74
2023/08/15 02:34:44;;;;;;;15.10;9.80;;;;;;;20.91;63.89;93045.09;5067360;28;20230;-75
2023/08/15 02:37:09;;;;;;;12.30;10.90;;;;;;;20.85;64.59;93035.78;5069045;28;20259;-75
2023/08/15 02:39:35;;;;;;;11.10;10.07;;;;;;;20.93;63.74;93040.22;5069382;28;20211;-75
2023/08/15 02:42:00;;;;;;;13.57;10.05;;;;;;;20.76;64.88;93027.16;5068607;28;20228;-75
2023/08/15 02:44:25;;;;;;;10.85;9.95;;;;;;;20.77;64.34;93024.19;5069363;28;20200;-74
2023/08/15 02:46:51;;;;;;;9.88;9.18;;;;;;;20.73;64.38;93041.09;5068164;28;20227;-75
2023/08/15 02:49:16;;;;;;;10.82;10.02;;;;;;;20.81;65.31;93050.84;5069008;28;20196;-75
2023/08/15 02:51:42;;;;;;;10.80;9.80;;;;;;;20.75;65.99;93031.69;5075124;28;20247;-74
2023/08/15 02:54:07;;;;;;;10.55;9.85;;;;;;;20.80;66.88;93038.66;5090104;28;20216;-75
2023/08/15 02:56:32;;;;;;;11.85;10.75;;;;;;;20.76;66.49;93043.09;5087180;28;20186;-74
2023/08/15 02:58:58;;;;;;;12.57;9.95;;;;;;;20.73;66.64;93043.75;5068874;28;20173;-75
2023/08/15 03:01:23;;;;;;;11.88;10.77;;;;;;;20.60;67.98;93027.81;5059932;28;20211;-74
2023/08/15 03:03:48;;;;;;;12.15;10.73;;;;;;;20.63;67.30;93037.78;5062770;28;20197;-74
2023/08/15 03:06:14;;;;;;;11.60;10.15;;;;;;;20.44;65.80;93013.63;5060055;28;20192;-74
2023/08/15 03:08:39;;;;;;;10.48;9.70;;;;;;;20.51;65.78;93037.72;5068223;28;20221;-75
2023/08/15 03:11:05;;;;;;;12.00;10.82;;;;;;;20.54;65.71;93039.75;5069099;28;20186;-74
2023/08/15 03:13:30;;;;;;;12.75;10.48;;;;;;;20.55;66.29;93043.16;5086036;28;20219;-74
2023/08/15 03:15:57;;;;;;;11.88;10.73;;;;;;;20.56;65.96;93045.47;5089369;28;20204;-75
2023/08/15 03:18:23;;;;;;;14.77;10.07;;;;;;;20.65;67.45;93054.13;5091083;28;20233;-75
2023/08/15 03:20:56;;;;;;;11.13;10.32;;;;;;;20.74;66.29;93062.00;5092741;28;20220;-75
2023/08/15 03:23:21;;;;;;;10.88;9.98;;;;;;;20.68;65.91;93050.81;5092309;28;20225;-75
2023/08/15 03:26:04;;;;;;;10.80;9.85;;;;;;;20.74;65.63;93056.69;5092729;28;20180;-75
2023/08/15 03:28:30;;;;;;;11.10;10.13;;;;;;;20.63;65.44;93050.25;5091654;28;20261;-74
2023/08/15 03:30:56;;;;;;;11.55;9.93;;;;;;;20.62;65.34;93044.16;5091348;28;20214;-75
2023/08/15 03:33:24;;;;;;;10.90;9.98;;;;;;;20.85;65.57;93059.69;5092034;28;20220;-75
2023/08/15 03:35:50;;;;;;;11.35;9.48;;;;;;;20.60;66.32;93046.38;5092134;28;20186;-75
2023/08/15 03:38:17;;;;;;;10.20;9.32;;;;;;;20.65;67.50;93062.06;5092215;28;20216;-75
2023/08/15 03:40:44;;;;;;;11.00;10.05;;;;;;;20.72;66.99;93063.44;5091333;28;20184;-75
2023/08/15 03:43:10;;;;;;;14.85;10.05;;;;;;;20.70;66.14;93061.88;5091509;28;20217;-75
2023/08/15 03:45:36;;;;;;;10.65;9.75;;;;;;;20.58;66.85;93042.50;5085829;28;20183;-75
2023/08/15 03:48:01;;;;;;;10.07;9.27;;;;;;;20.71;66.20;93062.66;5091721;28;20224;-75
2023/08/15 03:50:27;;;;;;;12.13;10.48;;;;;;;20.70;67.00;93056.56;5092025;28;20244;-75
2023/08/15 03:52:52;;;;;;;10.95;9.98;;;;;;;20.59;68.13;93044.06;5091614;28;20220;-74
2023/08/15 03:55:18;;;;;;;11.10;9.85;;;;;;;20.70;65.19;93064.53;5092190;28;20184;-75
2023/08/15 03:57:43;;;;;;;11.85;10.73;;;;;;;20.76;65.60;93072.28;5085187;28;20302;-75
2023/08/15 04:00:10;;;;;;;12.00;11.05;;;;;;;20.69;66.29;93054.25;5085384;28;20206;-74
2023/08/15 04:02:35;;;;;;;11.07;10.07;;;;;;;20.69;65.96;93062.97;5090981;28;20953;-75
2023/08/15 04:05:00;;;;;;;10.35;9.45;;;;;;;20.77;65.60;93045.41;5090851;28;20216;-75
2023/08/15 04:07:26;;;;;;;10.57;9.70;;;;;;;20.79;66.39;93064.44;5090994;28;20481;-75
2023/08/15 04:09:51;;;;;;;11.82;10.68;;;;;;;20.83;66.52;93069.84;5071869;28;20179;-75
2023/08/15 04:12:16;;;;;;;10.98;10.07;;;;;;;20.87;66.48;93074.19;5071265;28;20214;-75
2023/08/15 04:14:42;;;;;;;13.15;10.50;;;;;;;20.73;66.03;93059.66;5070891;28;20191;-75
2023/08/15 04:17:07;;;;;;;10.93;9.85;;;;;;;20.86;65.10;93058.59;5077249;28;20220;-75
2023/08/15 04:19:32;;;;;;;11.10;9.98;;;;;;;20.96;65.46;93068.78;5090681;28;20264;-75
2023/08/15 04:21:58;;;;;;;11.63;10.25;;;;;;;20.89;65.90;93069.31;5091204;28;20288;-75
2023/08/15 04:24:23;;;;;;;11.55;10.15;;;;;;;20.77;66.17;93071.16;5091749;28;20190;-75
2023/08/15 04:26:49;;;;;;;10.77;10.02;;;;;;;20.69;66.50;93065.63;5094875;28;20222;-75
2023/08/15 04:29:14;;;;;;;12.88;11.55;;;;;;;20.91;66.08;93071.63;5094715;28;20213;-75
2023/08/15 04:31:41;;;;;;;14.32;10.13;;;;;;;20.96;65.76;93071.44;5088373;28;20293;-75
2023/08/15 04:34:07;;;;;;;11.63;10.32;;;;;;;20.91;64.75;93069.75;5071225;28;20178;-74
2023/08/15 04:36:32;;;;;;;11.50;10.55;;;;;;;20.99;64.35;93062.81;5070735;28;20212;-75
2023/08/15 04:38:58;;;;;;;12.15;10.95;;;;;;;20.92;65.40;93070.53;5071323;28;20195;-75
2023/08/15 04:41:23;;;;;;;11.02;9.70;;;;;;;20.90;66.54;93078.84;5070256;28;20218;-74
2023/08/15 04:43:48;;;;;;;12.68;11.32;;;;;;;20.81;66.02;93080.03;5070445;28;20187;-75
2023/08/15 04:46:14;;;;;;;10.93;10.02;;;;;;;20.86;66.04;93085.13;5070938;28;20192;-75
2023/08/15 04:48:39;;;;;;;12.85;9.68;;;;;;;20.81;65.65;93088.75;5089538;28;20234;-75
2023/08/15 04:51:04;;;;;;;11.30;10.35;;;;;;;20.88;65.77;93093.53;5091117;28;20269;-75
2023/08/15 04:53:30;;;;;;;12.40;10.82;;;;;;;20.90;66.60;93092.09;5090395;28;20230;-75
2023/08/15 04:55:56;;;;;;;10.60;9.80;;;;;;;20.98;66.66;93101.09;5090530;28;20211;-75
2023/08/15 04:58:21;;;;;;;10.48;9.70;;;;;;;20.87;67.61;93089.34;5090390;28;20231;-75
2023/08/15 05:00:47;;;;;;;10.98;10.05;;;;;;;20.96;67.38;93100.66;5089281;28;20191;-75
2023/08/15 05:03:13;;;;;;;11.30;10.15;;;;;;;20.96;67.25;93098.00;5090292;28;20239;-75
2023/08/15 05:05:38;;;;;;;10.68;9.98;;;;;;;21.04;69.24;93103.22;5090746;28;20202;-74
2023/08/15 05:08:06;;;;;;;11.77;10.73;;;;;;;20.97;70.14;93096.88;5090087;28;20291;-75
2023/08/15 05:10:31;;;;;;;13.90;10.68;;;;;;;20.70;69.24;93056.56;5089392;28;20181;-75
2023/08/15 05:12:59;;;;;;;12.35;11.40;;;;;;;20.86;69.89;93107.13;5089909;28;20250;-75
2023/08/15 05:15:25;;;;;;;11.27;10.43;;;;;;;20.82;69.19;93116.88;5088144;28;20205;-75
2023/08/15 05:17:50;;;;;;;12.23;11.07;;;;;;;20.86;68.61;93127.59;5089464;28;20232;-75
2023/08/15 05:20:16;;;;;;;10.80;9.80;;;;;;;20.93;64.79;93114.56;5089217;28;21620;-75
2023/08/15 05:22:42;;;;;;;11.95;11.00;;;;;;;21.01;63.39;93127.00;5090104;28;20225;-74
2023/08/15 05:25:07;;;;;;;11.63;10.65;;;;;;;21.05;63.37;93131.31;5089857;28;20164;-75
2023/08/15 05:27:34;;;;;;;11.05;10.25;;;;;;;21.20;61.11;93132.56;5089834;28;20238;-75
2023/08/15 05:29:59;;;;;;;12.07;11.02;;;;;;;21.10;62.42;93143.59;5088096;28;20204;-75
2023/08/15 05:32:25;;;;;;;12.05;11.13;;;;;;;21.16;61.74;93131.66;5089791;28;20249;-74
2023/08/15 05:34:50;;;;;;;12.15;11.18;;;;;;;21.04;63.66;93129.78;5089935;28;20238;-75
2023/08/15 05:37:15;;;;;;;11.48;10.45;;;;;;;20.78;65.36;93133.78;5088457;28;20246;-75
2023/08/15 05:39:41;;;;;;;11.85;10.90;;;;;;;20.60;64.81;93083.53;5089154;28;20185;-75
2023/08/15 05:42:06;;;;;;;12.00;11.10;;;;;;;21.02;64.13;93125.88;5089305;28;20232;-75
2023/08/15 05:44:32;;;;;;;11.88;10.77;;;;;;;21.08;63.18;93119.25;5088973;28;20207;-75
2023/08/15 05:46:57;;;;;;;10.25;9.55;;;;;;;21.15;63.39;93130.13;5089285;28;20219;-75
2023/08/15 05:49:22;;;;;;;12.23;11.13;;;;;;;21.10;64.49;93138.28;5089215;28;20203;-75
2023/08/15 05:51:48;;;;;;;11.82;10.40;;;;;;;21.12;67.21;93131.53;5089498;28;20226;-75
2023/08/15 05:54:13;;;;;;;10.90;10.00;;;;;;;20.97;66.04;93134.06;5089721;28;20180;-75
2023/08/15 05:56:40;;;;;;;12.65;11.30;;;;;;;21.04;65.80;93134.31;5090864;28;20178;-74
2023/08/15 05:59:05;;;;;;;11.20;10.27;;;;;;;21.14;65.25;93139.16;5088845;28;20201;-75
2023/08/15 06:01:31;;;;;;;12.25;11.00;;;;;;;20.99;66.04;93118.56;5087479;28;20209;-74
2023/08/15 06:03:56;;;;;;;11.55;10.48;;;;;;;21.02;65.88;93126.66;5069156;28;20178;-75
2023/08/15 06:06:22;;;;;;;10.98;10.13;;;;;;;21.11;65.58;93134.50;5068197;28;20696;-74
2023/08/15 06:08:48;;;;;;;13.13;11.90;;;;;;;20.92;65.11;93110.34;5069308;28;20206;-75
2023/08/15 06:11:15;;;;;;;11.38;10.60;;;;;;;20.73;65.07;93119.59;5069578;28;20194;-75
2023/08/15 06:13:40;;;;;;;11.77;10.90;;;;;;;20.73;64.90;93085.09;5065930;28;20208;-75
2023/08/15 06:16:05;;;;;;;11.25;10.43;;;;;;;21.13;64.87;93124.34;5056953;28;20279;-75
2023/08/15 06:18:31;;;;;;;11.18;10.38;;;;;;;21.04;66.23;93124.47;5066970;28;20223;-75
2023/08/15 06:20:56;;;;;;;12.07;11.07;;;;;;;20.97;66.66;93112.81;5057327;28;20232;-75
2023/08/15 06:23:22;;;;;;;12.57;11.48;;;;;;;21.08;66.41;93135.97;5067172;28;20292;-75
2023/08/15 06:25:47;;;;;;;12.68;11.73;;;;;;;21.05;65.61;93130.53;5069220;28;20188;-75
2023/08/15 06:28:12;;;;;;;12.77;11.68;;;;;;;21.04;64.75;93132.44;5067742;28;20223;-75
2023/08/15 06:30:41;;;;;;;13.23;11.93;;;;;;;21.17;64.12;93138.53;5069178;28;20187;-75
2023/08/15 06:33:07;;;;;;;11.02;10.32;;;;;;;21.23;64.19;93134.56;5088227;28;20218;-75
2023/08/15 06:35:32;;;;;;;10.18;9.40;;;;;;;21.13;64.30;93134.97;5100062;28;20185;-75
2023/08/15 06:37:57;;;;;;;11.23;10.23;;;;;;;21.14;66.84;93147.91;5090340;28;20231;-74
2023/08/15 06:40:23;;;;;;;10.98;10.18;;;;;;;21.11;65.28;93126.56;5089221;28;20196;-75
2023/08/15 06:42:48;;;;;;;11.50;10.48;;;;;;;21.12;67.02;93146.72;5087631;28;20246;-75
2023/08/15 06:45:16;;;;;;;10.57;9.82;;;;;;;21.14;67.71;93145.25;5089311;28;20200;-75
2023/08/15 06:47:42;;;;;;;11.77;10.85;;;;;;;21.20;66.61;93153.81;5088921;28;20221;-75
2023/08/15 06:50:08;;;;;;;11.77;10.70;;;;;;;21.02;67.31;93121.34;5089339;28;20207;-75
2023/08/15 06:52:34;;;;;;;10.95;10.05;;;;;;;21.18;67.30;93151.47;5092799;28;20235;-75
2023/08/15 06:55:03;;;;;;;11.43;10.32;;;;;;;21.22;67.57;93154.22;5092939;28;20190;-75
2023/08/15 06:57:33;;;;;;;11.95;11.05;;;;;;;21.25;67.38;93140.28;5096598;28;20233;-75
2023/08/15 06:59:58;;;;;;;11.40;10.55;;;;;;;21.24;68.14;93149.38;5085787;28;20194;-75
2023/08/15 07:02:23;;;;;;;10.73;9.82;;;;;;;21.15;69.10;93140.72;5083370;28;20263;-75
2023/08/15 07:04:50;;;;;;;11.48;10.38;;;;;;;21.25;69.65;93158.88;5072829;28;20195;-74
2023/08/15 07:07:16;;;;;;;12.02;11.15;;;;;;;21.32;69.94;93157.25;5079749;28;20235;-74
2023/08/15 07:09:41;;;;;;;12.18;11.35;;;;;;;21.34;69.43;93155.03;5092703;28;20179;-75
2023/08/15 07:12:07;;;;;;;13.23;11.35;;;;;;;21.37;69.81;93148.28;5084845;28;20292;-75
2023/08/15 07:14:32;;;;;;;12.05;10.88;;;;;;;21.43;70.09;93146.97;5072376;28;20209;-75
2023/08/15 07:16:58;;;;;;;14.15;12.70;;;;;;;21.53;68.75;93144.63;5071861;28;20223;-74
2023/08/15 07:19:24;;;;;;;12.43;11.23;;;;;;;21.51;68.53;93143.44;5072608;28;20234;-75
2023/08/15 07:21:49;;;;;;;12.43;11.30;;;;;;;21.60;69.08;93149.41;5075969;28;20218;-75
2023/08/15 07:24:18;;;;;;;11.38;10.45;;;;;;;21.56;69.15;93153.81;5091730;28;20222;-75
2023/08/15 07:26:44;;;;;;;11.25;10.25;;;;;;;21.60;69.32;93154.72;5091800;28;20237;-75
2023/08/15 07:29:09;;;;;;;10.95;10.15;;;;;;;21.59;69.84;93153.13;5086382;28;20175;-75
2023/08/15 07:31:35;;;;;;;12.13;11.00;;;;;;;21.58;70.33;93151.59;5091581;28;20209;-75
2023/08/15 07:34:01;;;;;;;11.65;10.75;;;;;;;21.77;68.43;93152.63;5091156;28;20194;-75
2023/08/15 07:36:26;;;;;;;11.55;10.35;;;;;;;21.57;69.48;93140.19;5091610;28;20976;-75
2023/08/15 07:38:52;;;;;;;12.25;11.15;;;;;;;21.41;72.44;93157.13;5100114;28;20241;-75
2023/08/15 07:41:17;;;;;;;11.40;10.50;;;;;;;21.40;71.85;93147.63;5091861;28;20198;-75
2023/08/15 07:43:42;;;;;;;12.25;11.25;;;;;;;21.61;70.15;93150.94;5071167;28;20212;-75
2023/08/15 07:46:08;;;;;;;14.18;11.48;;;;;;;21.79;69.18;93145.09;5071766;28;20171;-75
2023/08/15 07:48:33;;;;;;;11.05;10.15;;;;;;;21.66;69.47;93156.81;5071400;28;20229;-75
2023/08/15 07:50:58;;;;;;;11.80;10.90;;;;;;;21.53;70.23;93162.44;5071482;28;20869;-75
2023/08/15 07:53:24;;;;;;;11.43;10.45;;;;;;;21.58;70.35;93154.25;5088764;28;20244;-75
2023/08/15 07:55:51;;;;;;;13.85;10.88;;;;;;;21.61;70.93;93148.28;5091884;28;20208;-75
2023/08/15 07:58:16;;;;;;;12.02;11.23;;;;;;;21.76;68.77;93139.69;5089583;28;20244;-75
2023/08/15 08:00:42;;;;;;;12.90;11.57;;;;;;;21.75;69.46;93154.06;5090497;28;20182;-75
2023/08/15 08:03:08;;;;;;;12.35;11.35;;;;;;;22.04;68.60;93145.81;5090916;28;20663;-75
2023/08/15 08:05:34;;;;;;;11.85;10.70;;;;;;;22.04;67.84;93149.25;5091619;28;20207;-75
2023/08/15 08:08:01;;;;;;;12.10;10.98;;;;;;;21.95;68.12;93145.94;5091178;28;20250;-75
2023/08/15 08:10:27;;;;;;;12.18;11.18;;;;;;;21.74;69.37;93157.81;5091429;28;20218;-75
2023/08/15 08:12:52;;;;;;;11.93;10.93;;;;;;;21.66;69.07;93151.50;5090383;28;20258;-75
2023/08/15 08:15:18;;;;;;;12.05;11.00;;;;;;;21.50;70.02;93149.81;5091611;28;20174;-75
2023/08/15 08:17:44;;;;;;;13.77;11.43;;;;;;;21.65;69.29;93154.50;5090897;28;20230;-75
2023/08/15 08:20:12;;;;;;;12.15;10.95;;;;;;;21.60;70.07;93152.84;5091290;28;20225;-75
2023/08/15 08:22:38;;;;;;;13.07;11.68;;;;;;;21.60;69.13;93146.75;5091447;28;20237;-75
2023/08/15 08:25:13;;;;;;;12.30;11.30;;;;;;;21.53;68.74;93147.28;5086378;28;20212;-75
2023/08/15 08:27:38;;;;;;;13.10;11.82;;;;;;;21.43;70.02;93146.97;5084606;28;20250;-75
2023/08/15 08:30:06;;;;;;;13.75;12.23;;;;;;;21.28;71.84;93156.34;5090134;28;20174;-75
2023/08/15 08:32:31;;;;;;;12.52;11.45;;;;;;;21.48;70.22;93150.16;5090671;28;20231;-75
2023/08/15 08:34:57;;;;;;;13.23;11.93;;;;;;;21.35;71.79;93145.19;5090843;28;20439;-75
2023/08/15 08:37:22;;;;;;;13.05;11.93;;;;;;;21.41;70.62;93141.97;5090634;28;20231;-75
2023/08/15 08:39:47;;;;;;;13.00;11.55;;;;;;;21.59;70.46;93150.47;5090740;28;20184;-74
2023/08/15 08:42:13;;;;;;;14.73;12.75;;;;;;;21.61;70.93;93148.28;5089900;28;20236;-75
2023/08/15 08:44:39;;;;;;;12.73;11.73;;;;;;;21.46;71.56;93125.03;5089457;28;20197;-75
2023/08/15 08:47:05;;;;;;;11.73;10.80;;;;;;;21.94;68.71;93140.97;5095131;28;20733;-75
2023/08/15 08:49:31;;;;;;;12.57;11.57;;;;;;;21.61;69.34;93121.69;5089586;28;20220;-75
2023/08/15 08:51:57;;;;;;;12.85;11.73;;;;;;;21.76;69.98;93139.69;5118502;28;20223;-75
2023/08/15 08:54:23;;;;;;;11.98;10.85;;;;;;;22.00;68.74;93142.28;5057874;28;20184;-75
2023/08/15 08:56:49;;;;;;;12.30;11.15;;;;;;;21.67;70.04;93136.31;5073706;28;20237;-75
2023/08/15 08:59:21;;;;;;;13.25;11.68;;;;;;;21.76;69.92;93145.75;5090505;28;20263;-73
2023/08/15 09:01:47;;;;;;;14.65;12.18;;;;;;;22.09;68.12;93121.66;5089816;28;20221;-75
2023/08/15 09:04:13;;;;;;;17.05;12.00;;;;;;;21.75;68.15;93100.91;5090333;28;20224;-75
2023/08/15 09:06:38;;;;;;;13.02;11.90;;;;;;;21.65;69.71;93138.53;5090816;28;20184;-74
2023/08/15 09:09:04;;;;;;;16.02;12.77;;;;;;;21.53;70.65;93126.03;5090385;28;20180;-75
2023/08/15 09:11:38;;;;;;;14.30;13.00;;;;;;;21.78;71.49;93132.13;5080914;28;20275;-74
2023/08/15 09:14:05;;;;;;;14.45;12.85;;;;;;;21.91;71.28;93133.66;5062385;28;20203;-75
2023/08/15 09:16:32;;;;;;;14.18;12.85;;;;;;;21.96;71.29;93122.81;5070982;28;20202;-75
2023/08/15 09:19:02;;;;;;;13.48;11.95;;;;;;;21.93;71.91;93121.56;5083350;28;20185;-75
2023/08/15 09:21:28;;;;;;;14.15;12.75;;;;;;;22.04;70.29;93125.31;5086033;28;20623;-75
2023/08/15 09:23:59;;;;;;;14.23;12.77;;;;;;;21.94;71.47;93135.66;5090400;28;20190;-75
2023/08/15 09:26:25;;;;;;;14.35;13.10;;;;;;;21.93;70.17;93123.47;5088404;28;20214;-75
2023/08/15 09:28:50;;;;;;;13.55;12.18;;;;;;;21.84;71.46;93130.78;5089755;28;20179;-75
2023/08/15 09:31:16;;;;;;;18.80;12.38;;;;;;;21.66;72.58;93127.59;5089724;28;20803;-75
2023/08/15 09:33:41;;;;;;;17.05;13.07;;;;;;;21.69;74.10;93123.47;5089485;28;20228;-75
2023/08/15 09:36:08;;;;;;;14.27;13.07;;;;;;;21.74;72.76;93120.59;5089786;28;20201;-75
2023/08/15 09:38:37;;;;;;;13.55;12.15;;;;;;;21.82;73.04;93114.41;5089377;28;20244;-75
2023/08/15 09:41:03;;;;;;;16.98;13.25;;;;;;;21.77;72.76;93114.63;5090028;28;20198;-75
2023/08/15 09:43:32;;;;;;;15.50;12.88;;;;;;;21.83;72.85;93102.66;5089618;28;20277;-75
2023/08/15 09:45:58;;;;;;;15.55;12.80;;;;;;;21.99;72.42;93116.81;5089740;28;20175;-75
2023/08/15 09:48:25;;;;;;;14.35;12.23;;;;;;;21.94;73.96;93123.16;5089394;28;20222;-75
2023/08/15 09:50:54;;;;;;;14.80;13.30;;;;;;;21.93;73.62;93112.84;5089417;28;20255;-75
2023/08/15 09:53:22;;;;;;;14.75;13.02;;;;;;;22.11;72.90;93111.47;5089728;28;20225;-75
2023/08/15 09:55:47;;;;;;;15.02;12.95;;;;;;;22.24;72.69;93113.72;5088831;28;20706;-75
2023/08/15 09:58:13;;;;;;;13.98;12.70;;;;;;;22.32;72.64;93108.63;5089123;28;20233;-75
2023/08/15 10:00:39;;;;;;;13.55;12.25;;;;;;;22.02;74.82;93102.84;5089040;28;20268;-75
2023/08/15 10:03:23;;;;;;;13.40;12.20;;;;;;;22.27;72.69;93113.06;5088058;28;20242;-75
2023/08/15 10:05:54;;;;;;;15.55;12.52;;;;;;;22.27;72.38;93113.06;5121547;28;20228;-75
2023/08/15 10:08:21;;;;;;;13.50;12.30;;;;;;;22.28;72.69;93108.53;5087668;28;20290;-75
2023/08/15 10:10:52;;;;;;;14.32;11.93;;;;;;;22.17;71.87;93118.09;5089110;28;20221;-75
2023/08/15 10:13:24;;;;;;;15.07;12.38;;;;;;;21.94;73.11;93120.47;5088525;28;20227;-75
2023/08/15 10:15:51;;;;;;;16.30;13.20;;;;;;;22.06;73.09;93111.69;5089440;28;20177;-75
2023/08/15 10:18:16;;;;;;;14.50;12.95;;;;;;;21.99;73.69;93119.47;5088923;28;20254;-75
2023/08/15 10:20:42;;;;;;;16.30;12.90;;;;;;;21.80;74.19;93114.75;5089599;28;20972;-75
2023/08/15 10:23:09;;;;;;;14.23;12.88;;;;;;;22.07;73.06;93123.88;5089286;28;20221;-75
2023/08/15 10:25:36;;;;;;;13.65;12.38;;;;;;;22.01;73.04;93114.56;5093487;28;20210;-75
2023/08/15 10:28:11;;;;;;;15.15;13.65;;;;;;;22.17;72.44;93118.88;5095186;28;20221;-75
2023/08/15 10:30:47;;;;;;;20.80;13.13;;;;;;;21.88;73.96;93127.13;5091529;28;20181;-75
2023/08/15 10:33:18;;;;;;;14.13;12.82;;;;;;;22.01;73.89;93119.88;5095480;28;20241;-75
2023/08/15 10:35:55;;;;;;;14.40;13.02;;;;;;;22.12;72.33;93123.63;5096283;28;20186;-76
2023/08/15 10:38:22;;;;;;;13.77;12.65;;;;;;;21.86;73.66;93113.41;5095824;28;20212;-75
2023/08/15 10:40:50;;;;;;;15.40;14.10;;;;;;;21.90;73.88;93114.28;5092017;28;20187;-75
2023/08/15 10:43:16;;;;;;;13.30;12.07;;;;;;;21.91;73.11;93117.72;5102801;28;20225;-75
2023/08/15 10:45:46;;;;;;;13.55;11.30;;;;;;;21.88;74.09;93127.13;5095890;28;20206;-75
2023/08/15 10:48:12;;;;;;;13.85;12.65;;;;;;;22.00;73.46;93129.78;5080218;28;20241;-75
2023/08/15 10:50:46;;;;;;;13.48;12.20;;;;;;;22.35;72.10;93134.56;5075841;28;20186;-75
2023/08/15 10:53:12;;;;;;;12.93;11.82;;;;;;;22.49;69.81;93122.41;5075831;28;20214;-75
2023/08/15 10:55:39;;;;;;;13.25;12.07;;;;;;;22.24;71.83;93131.59;5075025;28;20183;-76
2023/08/15 10:58:10;;;;;;;13.55;12.25;;;;;;;22.69;69.37;93129.47;5089626;28;20248;-75
2023/08/15 11:00:36;;;;;;;12.52;11.52;;;;;;;22.68;68.34;93133.22;5095871;28;20209;-75
2023/08/15 11:03:02;;;;;;;12.38;11.30;;;;;;;22.83;68.20;93134.38;5095443;28;20230;-76
2023/08/15 11:05:28;;;;;;;13.73;12.43;;;;;;;22.86;66.10;93139.81;5095825;28;20194;-76
2023/08/15 11:07:55;;;;;;;13.13;12.02;;;;;;;22.90;66.74;93140.66;5097205;28;20224;-74
2023/08/15 11:10:22;;;;;;;13.57;12.48;;;;;;;22.86;65.61;93139.81;5102370;28;20192;-74
2023/08/15 11:12:49;;;;;;;14.30;12.55;;;;;;;22.99;63.84;93138.59;5095416;28;20238;-75
2023/08/15 11:15:17;;;;;;;12.60;11.32;;;;;;;23.03;64.50;93125.38;5096254;28;20172;-74
2023/08/15 11:17:46;;;;;;;13.90;11.82;;;;;;;22.99;61.57;93088.00;5094959;28;20232;-74